ADDS METAR Data INFO
IDs: Format: Raw Decoded Include TAF

Data at: 1531 UTC 18 Jun 2018

KCLW 181515Z AUTO 12005KT 10SM SCT026 SCT033 30/22 A3015 RMK AO2
KCLW 181455Z AUTO 10005KT 10SM SCT026 SCT033 29/22 A3014 RMK AO2
KCLW 181435Z AUTO 13006KT 10SM SCT020 SCT029 SCT035 29/22 A3014 RMK AO2
KCLW 181415Z AUTO 12006KT 10SM SCT016 BKN029 BKN035 28/23 A3014 RMK AO2
KCLW 181355Z AUTO 11004KT 10SM BKN016 BKN026 27/23 A3014 RMK AO2
KCLW 181335Z AUTO 13005KT 10SM BKN016 BKN024 27/23 A3014 RMK AO2
KCLW 181315Z AUTO 13005KT 10SM SCT014 SCT024 27/23 A3013 RMK AO2
KCLW 181255Z AUTO 12004KT 10SM BKN014 27/23 A3013 RMK AO2
KCLW 181235Z AUTO 09004KT 10SM BKN012 OVC018 26/24 A3013 RMK AO2
KCLW 181215Z AUTO 10004KT 10SM BKN014 OVC020 26/24 A3013 RMK AO2
KCLW 181155Z AUTO 12003KT 10SM BKN014 26/24 A3012 RMK AO2
KCLW 181135Z AUTO 00000KT 10SM BKN012 25/23 A3011 RMK AO2
KCLW 181115Z AUTO 00000KT 10SM CLR 25/23 A3010 RMK AO2
KCLW 181055Z AUTO 00000KT 10SM CLR 25/23 A3010 RMK AO2
KCLW 181035Z AUTO 00000KT 10SM CLR 25/23 A3010 RMK AO2
KCLW 181015Z AUTO 08003KT 10SM CLR 25/23 A3009 RMK AO2
KCLW 180955Z AUTO 07003KT 10SM CLR 25/23 A3009 RMK AO2
KCLW 180935Z AUTO 00000KT 10SM CLR 25/23 A3008 RMK AO2
KCLW 180915Z AUTO 00000KT 10SM CLR 25/23 A3007 RMK AO2
KCLW 180855Z AUTO 10003KT 10SM CLR 25/23 A3007 RMK AO2
KCLW 180835Z AUTO 00000KT 10SM CLR 25/23 A3007 RMK AO2
KCLW 180815Z AUTO 08003KT 10SM CLR 25/22 A3006 RMK AO2
KCLW 180735Z AUTO 00000KT 10SM CLR 26/22 A3008 RMK AO2
KCLW 180715Z AUTO 07004KT 10SM CLR 26/22 A3008 RMK AO2
KCLW 180655Z AUTO 08003KT 10SM CLR 27/22 A3009 RMK AO2
KCLW 180635Z AUTO 10003KT 10SM CLR 27/22 A3009 RMK AO2
KCLW 180615Z AUTO 10003KT 10SM CLR 27/22 A3009 RMK AO2
KCLW 180555Z AUTO 10004KT 10SM CLR 27/22 A3010 RMK AO2
KCLW 180535Z AUTO 10004KT 10SM CLR 26/22 A3010 RMK AO2
KCLW 180455Z AUTO 00000KT 10SM CLR 26/22 A3012 RMK AO2
KCLW 180435Z AUTO 00000KT 10SM CLR 27/21 A3012 RMK AO2
KCLW 180415Z AUTO 10003KT 10SM CLR 27/21 A3012 RMK AO2
KCLW 180355Z AUTO 09004KT 10SM CLR 27/21 A3013 RMK AO2
KCLW 180335Z AUTO 07003KT 10SM CLR 27/21 A3012 RMK AO2
KCLW 180315Z AUTO 00000KT 10SM CLR 27/21 A3012 RMK AO2
KCLW 180255Z AUTO 00000KT 10SM CLR 27/21 A3011 RMK AO2
KCLW 180235Z AUTO 06005KT 10SM CLR 28/21 A3011 RMK AO2
KCLW 180215Z AUTO 05006KT 10SM CLR 28/21 A3012 RMK AO2
KCLW 180155Z AUTO 04005KT 10SM CLR 28/21 A3012 RMK AO2
KCLW 180135Z AUTO 02004KT 10SM CLR 28/22 A3010 RMK AO2
KCLW 180115Z AUTO 05007KT 010V070 10SM SCT039 SCT050 SCT070 28/22 A3010 RMK AO2
KCLW 180055Z AUTO 05005KT 10SM SCT039 SCT050 SCT070 30/21 A3010 RMK AO2
KCLW 180035Z AUTO 34003KT 10SM SCT055 29/22 A3008 RMK AO2
KCLW 180015Z AUTO 30003KT 10SM SCT055 29/22 A3007 RMK AO2
KCLW 172355Z AUTO 30003KT 10SM CLR 29/22 A3006 RMK AO2
KCLW 172335Z AUTO 32007KT 10SM CLR 30/22 A3006 RMK AO2
KCLW 172315Z AUTO 33010KT 10SM CLR 30/23 A3006 RMK AO2
KCLW 172255Z AUTO 33008KT 10SM SCT060 SCT070 30/23 A3006 RMK AO2
KCLW 172235Z AUTO 31008KT 10SM SCT055 BKN065 30/22 A3006 RMK AO2
KCLW 172215Z AUTO 33008KT 300V360 10SM SCT046 SCT055 BKN065 31/22 A3006 RMK AO2
KCLW 172155Z AUTO 33008KT 10SM SCT046 BKN060 BKN080 31/22 A3006 RMK AO2
KCLW 172135Z AUTO 33009KT 10SM SCT044 SCT050 BKN085 32/22 A3006 RMK AO2
KCLW 172115Z AUTO 32008KT 10SM SCT090 32/22 A3007 RMK AO2
KCLW 172055Z AUTO 32008KT 290V350 10SM SCT075 32/23 A3007 RMK AO2
KCLW 172035Z AUTO 32009KT 10SM SCT037 SCT075 32/23 A3007 RMK AO2
KCLW 172015Z AUTO 33009KT 10SM BKN037 BKN045 OVC065 31/23 A3007 RMK AO2
KCLW 171955Z AUTO 31008KT 10SM SCT050 BKN070 32/23 A3008 RMK AO2
KCLW 171935Z AUTO 09003KT 10SM BKN050 32/19 A3008 RMK AO2
KCLW 171915Z AUTO 00000KT 10SM SCT050 32/20 A3009 RMK AO2
KCLW 171855Z AUTO 00000KT 10SM SCT050 32/19 A3009 RMK AO2
KCLW 171835Z AUTO 06004KT 10SM BKN050 33/20 A3010 RMK AO2
KCLW 171815Z AUTO 07004KT 10SM SCT060 SCT065 33/20 A3010 RMK AO2
KCLW 171755Z AUTO 03005KT 10SM SCT049 33/20 A3011 RMK AO2
KCLW 171735Z AUTO 15005KT 10SM SCT049 SCT055 33/20 A3012 RMK AO2
KCLW 171715Z AUTO 09004KT 10SM SCT049 BKN055 32/21 A3012 RMK AO2
KCLW 171655Z AUTO 10003KT 10SM BKN049 32/20 A3013 RMK AO2
KCLW 171635Z AUTO 11007KT 10SM SCT049 32/20 A3013 RMK AO2
KCLW 171615Z AUTO 06006KT 10SM CLR 32/20 A3013 RMK AO2
KCLW 171555Z AUTO 09005KT 10SM CLR 31/20 A3013 RMK AO2
KCLW 171535Z AUTO 09004KT 10SM CLR 31/21 A3014 RMK AO2
KCLW 171515Z AUTO 07005KT 10SM CLR 31/21 A3014 RMK AO2
KCLW 171455Z AUTO 02005KT 10SM CLR 31/22 A3014 RMK AO2
KCLW 171435Z AUTO 00000KT 10SM CLR 31/22 A3014 RMK AO2
KCLW 171415Z AUTO 06004KT 10SM CLR 30/22 A3014 RMK AO2
KCLW 171355Z AUTO 07005KT 10SM CLR 30/22 A3014 RMK AO2
KCLW 171335Z AUTO 11003KT 10SM CLR 28/22 A3014 RMK AO2
KCLW 171315Z AUTO 11003KT 10SM CLR 28/22 A3013 RMK AO2
KCLW 171255Z AUTO 10003KT 10SM CLR 27/22 A3013 RMK AO2
KCLW 171235Z AUTO 00000KT 10SM CLR 26/23 A3013 RMK AO2
KCLW 171215Z AUTO 00000KT 10SM CLR 26/22 A3012 RMK AO2
KCLW 171155Z AUTO 00000KT 10SM CLR 26/22 A3011 RMK AO2
KCLW 171135Z AUTO 00000KT 10SM CLR 25/22 A3010 RMK AO2
KCLW 171115Z AUTO 00000KT 10SM CLR 25/22 A3010 RMK AO2
KCLW 171055Z AUTO 00000KT 10SM CLR 25/22 A3010 RMK AO2
KCLW 171035Z AUTO 00000KT 10SM CLR 24/22 A3010 RMK AO2
KCLW 171015Z AUTO 00000KT 10SM CLR 25/22 A3009 RMK AO2
KCLW 170955Z AUTO 00000KT 10SM CLR 25/22 A3009 RMK AO2
KCLW 170935Z AUTO 00000KT 10SM CLR 25/22 A3008 RMK AO2
KCLW 170915Z AUTO 00000KT 10SM CLR 25/22 A3008 RMK AO2
KCLW 170855Z AUTO 00000KT 10SM CLR 25/22 A3008 RMK AO2
KCLW 170835Z AUTO 08003KT 10SM CLR 25/22 A3007 RMK AO2
KCLW 170815Z AUTO 07003KT 10SM CLR 25/23 A3007 RMK AO2
KCLW 170755Z AUTO 00000KT 10SM CLR 25/23 A3007 RMK AO2
KCLW 170735Z AUTO 00000KT 10SM CLR 25/23 A3007 RMK AO2
KCLW 170715Z AUTO 00000KT 10SM CLR 25/23 A3007 RMK AO2
KCLW 170655Z AUTO 00000KT 10SM CLR 25/23 A3007 RMK AO2
KCLW 170635Z AUTO 07005KT 10SM CLR 26/23 A3008 RMK AO2
KCLW 170615Z AUTO 00000KT 10SM CLR 26/23 A3008 RMK AO2
KCLW 170555Z AUTO 00000KT 10SM CLR 26/23 A3008 RMK AO2
KCLW 170535Z AUTO 08003KT 10SM CLR 26/23 A3008 RMK AO2
KCLW 170515Z AUTO 08003KT 10SM CLR 27/22 A3008 RMK AO2
KCLW 170455Z AUTO 00000KT 10SM CLR 27/22 A3008 RMK AO2
KCLW 170435Z AUTO 00000KT 10SM CLR 27/22 A3009 RMK AO2
KCLW 170415Z AUTO 00000KT 10SM CLR 27/23 A3009 RMK AO2
KCLW 170355Z AUTO 00000KT 10SM CLR 27/22 A3008 RMK AO2
KCLW 170335Z AUTO 00000KT 10SM CLR 27/22 A3008 RMK AO2